sensor_id;sensor_type;location;lat;lon;timestamp;P1;durP1;ratioP1;P2;durP2;ratioP2
39740;SDS011;25426;53.478;10.190;2022-08-21T00:00:01;8.90;;;7.07;;
39740;SDS011;25426;53.478;10.190;2022-08-21T00:02:46;11.52;;;6.93;;
39740;SDS011;25426;53.478;10.190;2022-08-21T00:05:22;9.60;;;6.20;;
39740;SDS011;25426;53.478;10.190;2022-08-21T00:07:54;9.25;;;6.60;;
39740;SDS011;25426;53.478;10.190;2022-08-21T00:10:25;8.00;;;6.43;;
39740;SDS011;25426;53.478;10.190;2022-08-21T00:12:56;8.63;;;5.93;;
39740;SDS011;25426;53.478;10.190;2022-08-21T00:15:28;10.82;;;5.78;;
39740;SDS011;25426;53.478;10.190;2022-08-21T00:18:01;10.63;;;6.57;;
39740;SDS011;25426;53.478;10.190;2022-08-21T00:20:33;9.80;;;6.53;;
39740;SDS011;25426;53.478;10.190;2022-08-21T00:23:04;8.88;;;5.18;;
39740;SDS011;25426;53.478;10.190;2022-08-21T00:25:37;10.43;;;6.43;;
39740;SDS011;25426;53.478;10.190;2022-08-21T00:28:08;9.05;;;5.93;;
39740;SDS011;25426;53.478;10.190;2022-08-21T00:30:39;8.90;;;5.78;;
39740;SDS011;25426;53.478;10.190;2022-08-21T00:33:11;7.82;;;6.00;;
39740;SDS011;25426;53.478;10.190;2022-08-21T00:35:42;9.85;;;5.50;;
39740;SDS011;25426;53.478;10.190;2022-08-21T00:38:13;10.13;;;5.75;;
39740;SDS011;25426;53.478;10.190;2022-08-21T00:40:46;8.98;;;5.88;;
39740;SDS011;25426;53.478;10.190;2022-08-21T00:43:24;6.50;;;5.20;;
39740;SDS011;25426;53.478;10.190;2022-08-21T00:45:59;10.93;;;6.70;;
39740;SDS011;25426;53.478;10.190;2022-08-21T00:48:31;6.05;;;5.32;;
39740;SDS011;25426;53.478;10.190;2022-08-21T00:53:42;10.57;;;5.90;;
39740;SDS011;25426;53.478;10.190;2022-08-21T00:56:14;9.20;;;6.85;;
39740;SDS011;25426;53.478;10.190;2022-08-21T00:58:45;7.20;;;5.72;;
39740;SDS011;25426;53.478;10.190;2022-08-21T01:01:16;9.00;;;6.43;;
39740;SDS011;25426;53.478;10.190;2022-08-21T01:03:47;10.48;;;6.68;;
39740;SDS011;25426;53.478;10.190;2022-08-21T01:06:18;11.68;;;7.60;;
39740;SDS011;25426;53.478;10.190;2022-08-21T01:08:49;11.70;;;9.13;;
39740;SDS011;25426;53.478;10.190;2022-08-21T01:11:20;17.45;;;12.63;;
39740;SDS011;25426;53.478;10.190;2022-08-21T01:13:51;16.30;;;13.18;;
39740;SDS011;25426;53.478;10.190;2022-08-21T01:16:22;19.63;;;13.38;;
39740;SDS011;25426;53.478;10.190;2022-08-21T01:18:53;18.85;;;15.25;;
39740;SDS011;25426;53.478;10.190;2022-08-21T01:21:25;18.98;;;12.50;;
39740;SDS011;25426;53.478;10.190;2022-08-21T01:23:57;15.15;;;12.20;;
39740;SDS011;25426;53.478;10.190;2022-08-21T01:26:30;12.25;;;10.38;;
39740;SDS011;25426;53.478;10.190;2022-08-21T01:29:15;13.32;;;10.15;;
39740;SDS011;25426;53.478;10.190;2022-08-21T01:32:22;11.57;;;10.38;;
39740;SDS011;25426;53.478;10.190;2022-08-21T01:34:53;13.63;;;11.15;;
39740;SDS011;25426;53.478;10.190;2022-08-21T01:37:24;13.43;;;9.77;;
39740;SDS011;25426;53.478;10.190;2022-08-21T01:39:55;11.05;;;9.95;;
39740;SDS011;25426;53.478;10.190;2022-08-21T01:42:26;15.63;;;10.73;;
39740;SDS011;25426;53.478;10.190;2022-08-21T01:44:57;9.30;;;8.27;;
39740;SDS011;25426;53.478;10.190;2022-08-21T01:47:28;13.40;;;8.55;;
39740;SDS011;25426;53.478;10.190;2022-08-21T01:49:59;11.88;;;9.18;;
39740;SDS011;25426;53.478;10.190;2022-08-21T01:52:30;14.65;;;9.82;;
39740;SDS011;25426;53.478;10.190;2022-08-21T01:55:01;12.30;;;9.13;;
39740;SDS011;25426;53.478;10.190;2022-08-21T01:57:34;10.13;;;8.30;;
39740;SDS011;25426;53.478;10.190;2022-08-21T02:00:06;14.32;;;10.13;;
39740;SDS011;25426;53.478;10.190;2022-08-21T02:02:43;13.73;;;10.07;;
39740;SDS011;25426;53.478;10.190;2022-08-21T02:05:14;13.18;;;9.52;;
39740;SDS011;25426;53.478;10.190;2022-08-21T02:07:46;11.65;;;9.13;;
39740;SDS011;25426;53.478;10.190;2022-08-21T02:10:22;11.05;;;7.47;;
39740;SDS011;25426;53.478;10.190;2022-08-21T02:12:58;11.13;;;9.35;;
39740;SDS011;25426;53.478;10.190;2022-08-21T02:15:30;11.32;;;8.05;;
39740;SDS011;25426;53.478;10.190;2022-08-21T02:18:02;10.80;;;8.52;;
39740;SDS011;25426;53.478;10.190;2022-08-21T02:20:44;11.88;;;9.48;;
39740;SDS011;25426;53.478;10.190;2022-08-21T02:23:17;9.73;;;7.82;;
39740;SDS011;25426;53.478;10.190;2022-08-21T02:25:48;9.70;;;7.38;;
39740;SDS011;25426;53.478;10.190;2022-08-21T02:28:19;14.80;;;9.80;;
39740;SDS011;25426;53.478;10.190;2022-08-21T02:30:50;10.60;;;9.00;;
39740;SDS011;25426;53.478;10.190;2022-08-21T02:33:21;8.60;;;7.70;;
39740;SDS011;25426;53.478;10.190;2022-08-21T02:35:53;9.82;;;7.57;;
39740;SDS011;25426;53.478;10.190;2022-08-21T02:38:27;8.40;;;7.43;;
39740;SDS011;25426;53.478;10.190;2022-08-21T02:41:04;11.07;;;6.90;;
39740;SDS011;25426;53.478;10.190;2022-08-21T02:43:37;10.07;;;7.22;;
39740;SDS011;25426;53.478;10.190;2022-08-21T02:46:08;9.13;;;6.43;;
39740;SDS011;25426;53.478;10.190;2022-08-21T02:48:42;12.68;;;7.65;;
39740;SDS011;25426;53.478;10.190;2022-08-21T02:51:15;8.85;;;6.50;;
39740;SDS011;25426;53.478;10.190;2022-08-21T02:53:48;9.05;;;6.72;;
39740;SDS011;25426;53.478;10.190;2022-08-21T02:56:20;10.52;;;6.68;;
39740;SDS011;25426;53.478;10.190;2022-08-21T02:58:52;8.35;;;6.53;;
39740;SDS011;25426;53.478;10.190;2022-08-21T03:01:23;11.50;;;7.57;;
39740;SDS011;25426;53.478;10.190;2022-08-21T03:03:54;9.35;;;7.05;;
39740;SDS011;25426;53.478;10.190;2022-08-21T03:06:25;11.02;;;7.05;;
39740;SDS011;25426;53.478;10.190;2022-08-21T03:08:56;10.02;;;6.88;;
39740;SDS011;25426;53.478;10.190;2022-08-21T03:11:27;11.63;;;7.32;;
39740;SDS011;25426;53.478;10.190;2022-08-21T03:13:58;10.30;;;6.32;;
39740;SDS011;25426;53.478;10.190;2022-08-21T03:16:29;16.70;;;8.43;;
39740;SDS011;25426;53.478;10.190;2022-08-21T03:19:00;10.88;;;7.22;;
39740;SDS011;25426;53.478;10.190;2022-08-21T03:21:31;13.65;;;8.07;;
39740;SDS011;25426;53.478;10.190;2022-08-21T03:24:02;8.43;;;5.97;;
39740;SDS011;25426;53.478;10.190;2022-08-21T03:26:34;8.93;;;6.97;;
39740;SDS011;25426;53.478;10.190;2022-08-21T03:29:05;7.28;;;6.50;;
39740;SDS011;25426;53.478;10.190;2022-08-21T03:31:37;9.93;;;7.05;;
39740;SDS011;25426;53.478;10.190;2022-08-21T03:34:08;10.55;;;7.28;;
39740;SDS011;25426;53.478;10.190;2022-08-21T03:36:40;8.02;;;6.40;;
39740;SDS011;25426;53.478;10.190;2022-08-21T03:39:11;8.02;;;6.72;;
39740;SDS011;25426;53.478;10.190;2022-08-21T03:41:41;10.23;;;7.43;;
39740;SDS011;25426;53.478;10.190;2022-08-21T03:44:12;13.98;;;8.35;;
39740;SDS011;25426;53.478;10.190;2022-08-21T03:46:43;12.77;;;7.80;;
39740;SDS011;25426;53.478;10.190;2022-08-21T03:49:14;7.93;;;6.70;;
39740;SDS011;25426;53.478;10.190;2022-08-21T03:51:45;7.90;;;6.32;;
39740;SDS011;25426;53.478;10.190;2022-08-21T03:54:16;8.82;;;5.22;;
39740;SDS011;25426;53.478;10.190;2022-08-21T03:56:47;8.40;;;7.63;;
39740;SDS011;25426;53.478;10.190;2022-08-21T03:59:17;11.35;;;6.82;;
39740;SDS011;25426;53.478;10.190;2022-08-21T04:01:56;8.50;;;6.43;;
39740;SDS011;25426;53.478;10.190;2022-08-21T04:04:29;8.15;;;7.32;;
39740;SDS011;25426;53.478;10.190;2022-08-21T04:07:00;7.47;;;6.68;;
39740;SDS011;25426;53.478;10.190;2022-08-21T04:09:31;13.43;;;8.25;;
39740;SDS011;25426;53.478;10.190;2022-08-21T04:12:02;8.07;;;6.20;;
39740;SDS011;25426;53.478;10.190;2022-08-21T04:14:33;8.30;;;7.50;;
39740;SDS011;25426;53.478;10.190;2022-08-21T04:17:04;12.05;;;6.95;;
39740;SDS011;25426;53.478;10.190;2022-08-21T04:19:35;8.18;;;6.40;;
39740;SDS011;25426;53.478;10.190;2022-08-21T04:22:06;14.27;;;7.43;;
39740;SDS011;25426;53.478;10.190;2022-08-21T04:24:37;9.63;;;8.10;;
39740;SDS011;25426;53.478;10.190;2022-08-21T04:27:07;15.15;;;9.85;;
39740;SDS011;25426;53.478;10.190;2022-08-21T04:29:38;10.18;;;7.95;;
39740;SDS011;25426;53.478;10.190;2022-08-21T04:32:09;12.07;;;8.82;;
39740;SDS011;25426;53.478;10.190;2022-08-21T04:34:40;10.73;;;8.07;;
39740;SDS011;25426;53.478;10.190;2022-08-21T04:37:11;13.57;;;8.70;;
39740;SDS011;25426;53.478;10.190;2022-08-21T04:39:41;9.07;;;7.78;;
39740;SDS011;25426;53.478;10.190;2022-08-21T04:42:12;11.18;;;8.10;;
39740;SDS011;25426;53.478;10.190;2022-08-21T04:44:44;10.48;;;7.70;;
39740;SDS011;25426;53.478;10.190;2022-08-21T04:47:15;11.32;;;8.48;;
39740;SDS011;25426;53.478;10.190;2022-08-21T04:49:46;14.10;;;8.38;;
39740;SDS011;25426;53.478;10.190;2022-08-21T04:52:19;12.55;;;8.77;;
39740;SDS011;25426;53.478;10.190;2022-08-21T04:54:52;10.18;;;8.75;;
39740;SDS011;25426;53.478;10.190;2022-08-21T04:57:23;9.82;;;8.82;;
39740;SDS011;25426;53.478;10.190;2022-08-21T04:59:53;13.75;;;9.45;;
39740;SDS011;25426;53.478;10.190;2022-08-21T05:02:24;14.98;;;9.75;;
39740;SDS011;25426;53.478;10.190;2022-08-21T05:04:56;14.52;;;9.80;;
39740;SDS011;25426;53.478;10.190;2022-08-21T05:07:28;14.80;;;10.27;;
39740;SDS011;25426;53.478;10.190;2022-08-21T05:10:00;14.80;;;9.75;;
39740;SDS011;25426;53.478;10.190;2022-08-21T05:12:31;11.70;;;8.73;;
39740;SDS011;25426;53.478;10.190;2022-08-21T05:15:03;11.80;;;8.82;;
39740;SDS011;25426;53.478;10.190;2022-08-21T05:17:34;14.75;;;8.95;;
39740;SDS011;25426;53.478;10.190;2022-08-21T05:20:05;12.48;;;9.38;;
39740;SDS011;25426;53.478;10.190;2022-08-21T05:22:36;11.70;;;8.43;;
39740;SDS011;25426;53.478;10.190;2022-08-21T05:25:08;9.95;;;8.05;;
39740;SDS011;25426;53.478;10.190;2022-08-21T05:27:39;10.75;;;7.22;;
39740;SDS011;25426;53.478;10.190;2022-08-21T05:30:10;10.35;;;7.70;;
39740;SDS011;25426;53.478;10.190;2022-08-21T05:32:41;9.63;;;7.68;;
39740;SDS011;25426;53.478;10.190;2022-08-21T05:35:12;10.43;;;7.53;;
39740;SDS011;25426;53.478;10.190;2022-08-21T05:37:43;9.60;;;6.47;;
39740;SDS011;25426;53.478;10.190;2022-08-21T05:40:14;7.35;;;6.50;;
39740;SDS011;25426;53.478;10.190;2022-08-21T05:42:45;7.78;;;6.50;;
39740;SDS011;25426;53.478;10.190;2022-08-21T05:45:16;9.20;;;6.68;;
39740;SDS011;25426;53.478;10.190;2022-08-21T05:47:47;8.60;;;6.20;;
39740;SDS011;25426;53.478;10.190;2022-08-21T05:50:18;8.05;;;6.25;;
39740;SDS011;25426;53.478;10.190;2022-08-21T05:52:49;9.20;;;5.63;;
39740;SDS011;25426;53.478;10.190;2022-08-21T05:55:20;9.82;;;5.63;;
39740;SDS011;25426;53.478;10.190;2022-08-21T05:57:50;10.23;;;5.43;;
39740;SDS011;25426;53.478;10.190;2022-08-21T06:00:22;11.00;;;5.20;;
39740;SDS011;25426;53.478;10.190;2022-08-21T06:02:53;8.23;;;5.72;;
39740;SDS011;25426;53.478;10.190;2022-08-21T06:05:24;6.97;;;4.75;;
39740;SDS011;25426;53.478;10.190;2022-08-21T06:07:55;6.35;;;4.57;;
39740;SDS011;25426;53.478;10.190;2022-08-21T06:10:25;8.65;;;5.63;;
39740;SDS011;25426;53.478;10.190;2022-08-21T06:12:56;8.18;;;5.05;;
39740;SDS011;25426;53.478;10.190;2022-08-21T06:15:27;7.90;;;5.75;;
39740;SDS011;25426;53.478;10.190;2022-08-21T06:17:58;8.27;;;5.32;;
39740;SDS011;25426;53.478;10.190;2022-08-21T06:20:29;7.65;;;6.03;;
39740;SDS011;25426;53.478;10.190;2022-08-21T06:23:00;11.07;;;5.30;;
39740;SDS011;25426;53.478;10.190;2022-08-21T06:25:31;6.85;;;4.97;;
39740;SDS011;25426;53.478;10.190;2022-08-21T06:28:03;10.93;;;5.90;;
39740;SDS011;25426;53.478;10.190;2022-08-21T06:30:37;12.75;;;5.28;;
39740;SDS011;25426;53.478;10.190;2022-08-21T06:33:09;10.60;;;5.03;;
39740;SDS011;25426;53.478;10.190;2022-08-21T06:35:40;7.35;;;5.00;;
39740;SDS011;25426;53.478;10.190;2022-08-21T06:38:10;5.90;;;4.63;;
39740;SDS011;25426;53.478;10.190;2022-08-21T06:40:41;7.35;;;4.47;;
39740;SDS011;25426;53.478;10.190;2022-08-21T06:43:14;8.63;;;5.68;;
39740;SDS011;25426;53.478;10.190;2022-08-21T06:45:46;8.57;;;4.88;;
39740;SDS011;25426;53.478;10.190;2022-08-21T06:48:17;7.10;;;4.75;;
39740;SDS011;25426;53.478;10.190;2022-08-21T06:50:48;5.93;;;4.47;;
39740;SDS011;25426;53.478;10.190;2022-08-21T06:53:19;5.60;;;5.00;;
39740;SDS011;25426;53.478;10.190;2022-08-21T06:55:50;7.93;;;4.20;;
39740;SDS011;25426;53.478;10.190;2022-08-21T06:58:21;7.88;;;4.65;;
39740;SDS011;25426;53.478;10.190;2022-08-21T07:00:52;10.82;;;4.22;;
39740;SDS011;25426;53.478;10.190;2022-08-21T07:03:24;7.97;;;4.43;;
39740;SDS011;25426;53.478;10.190;2022-08-21T07:06:05;4.22;;;3.58;;
39740;SDS011;25426;53.478;10.190;2022-08-21T07:08:37;5.20;;;4.00;;
39740;SDS011;25426;53.478;10.190;2022-08-21T07:11:19;9.23;;;4.20;;
39740;SDS011;25426;53.478;10.190;2022-08-21T07:13:53;6.35;;;3.95;;
39740;SDS011;25426;53.478;10.190;2022-08-21T07:16:24;5.75;;;3.65;;
39740;SDS011;25426;53.478;10.190;2022-08-21T07:18:55;4.30;;;3.28;;
39740;SDS011;25426;53.478;10.190;2022-08-21T07:21:26;6.47;;;3.30;;
39740;SDS011;25426;53.478;10.190;2022-08-21T07:23:57;5.60;;;3.33;;
39740;SDS011;25426;53.478;10.190;2022-08-21T07:26:28;5.88;;;3.75;;
39740;SDS011;25426;53.478;10.190;2022-08-21T07:28:59;5.13;;;3.65;;
39740;SDS011;25426;53.478;10.190;2022-08-21T07:31:30;5.47;;;3.10;;
39740;SDS011;25426;53.478;10.190;2022-08-21T07:34:01;8.10;;;3.38;;
39740;SDS011;25426;53.478;10.190;2022-08-21T07:36:32;8.90;;;3.47;;
39740;SDS011;25426;53.478;10.190;2022-08-21T07:39:03;5.43;;;2.83;;
39740;SDS011;25426;53.478;10.190;2022-08-21T07:41:34;4.55;;;2.50;;
39740;SDS011;25426;53.478;10.190;2022-08-21T07:44:05;6.13;;;2.30;;
39740;SDS011;25426;53.478;10.190;2022-08-21T07:46:36;3.63;;;2.05;;
39740;SDS011;25426;53.478;10.190;2022-08-21T07:49:06;9.27;;;2.67;;
39740;SDS011;25426;53.478;10.190;2022-08-21T07:51:37;4.68;;;2.22;;
39740;SDS011;25426;53.478;10.190;2022-08-21T07:54:08;5.40;;;2.05;;
39740;SDS011;25426;53.478;10.190;2022-08-21T07:56:39;5.47;;;2.10;;
39740;SDS011;25426;53.478;10.190;2022-08-21T07:59:10;3.88;;;2.15;;
39740;SDS011;25426;53.478;10.190;2022-08-21T08:01:41;5.78;;;1.58;;
39740;SDS011;25426;53.478;10.190;2022-08-21T08:04:12;4.55;;;2.17;;
39740;SDS011;25426;53.478;10.190;2022-08-21T08:06:44;6.20;;;1.92;;
39740;SDS011;25426;53.478;10.190;2022-08-21T08:09:15;5.13;;;2.00;;
39740;SDS011;25426;53.478;10.190;2022-08-21T08:11:46;4.47;;;2.25;;
39740;SDS011;25426;53.478;10.190;2022-08-21T08:14:17;4.53;;;1.95;;
39740;SDS011;25426;53.478;10.190;2022-08-21T08:16:48;4.10;;;1.98;;
39740;SDS011;25426;53.478;10.190;2022-08-21T08:19:19;2.40;;;1.50;;
39740;SDS011;25426;53.478;10.190;2022-08-21T08:21:50;3.45;;;1.50;;
39740;SDS011;25426;53.478;10.190;2022-08-21T08:24:20;6.45;;;2.08;;
39740;SDS011;25426;53.478;10.190;2022-08-21T08:26:51;4.53;;;1.85;;
39740;SDS011;25426;53.478;10.190;2022-08-21T08:29:23;4.35;;;1.95;;
39740;SDS011;25426;53.478;10.190;2022-08-21T08:31:54;5.43;;;2.28;;
39740;SDS011;25426;53.478;10.190;2022-08-21T08:34:25;5.40;;;1.67;;
39740;SDS011;25426;53.478;10.190;2022-08-21T08:36:57;5.35;;;2.20;;
39740;SDS011;25426;53.478;10.190;2022-08-21T08:39:31;4.30;;;1.50;;
39740;SDS011;25426;53.478;10.190;2022-08-21T08:42:07;4.65;;;1.65;;
39740;SDS011;25426;53.478;10.190;2022-08-21T08:44:44;3.42;;;1.77;;
39740;SDS011;25426;53.478;10.190;2022-08-21T08:47:16;3.28;;;1.75;;
39740;SDS011;25426;53.478;10.190;2022-08-21T08:50:04;5.28;;;1.70;;
39740;SDS011;25426;53.478;10.190;2022-08-21T08:52:48;3.15;;;1.65;;
39740;SDS011;25426;53.478;10.190;2022-08-21T08:55:36;3.38;;;1.52;;
39740;SDS011;25426;53.478;10.190;2022-08-21T08:58:16;4.65;;;1.58;;
39740;SDS011;25426;53.478;10.190;2022-08-21T09:00:54;3.60;;;2.00;;
39740;SDS011;25426;53.478;10.190;2022-08-21T09:03:26;6.05;;;1.95;;
39740;SDS011;25426;53.478;10.190;2022-08-21T09:06:23;3.88;;;1.45;;
39740;SDS011;25426;53.478;10.190;2022-08-21T09:09:39;2.67;;;1.80;;
39740;SDS011;25426;53.478;10.190;2022-08-21T09:12:29;4.22;;;2.05;;
39740;SDS011;25426;53.478;10.190;2022-08-21T09:21:26;4.57;;;1.90;;
39740;SDS011;25426;53.478;10.190;2022-08-21T09:24:41;5.53;;;2.13;;
39740;SDS011;25426;53.478;10.190;2022-08-21T09:27:21;5.50;;;1.73;;
39740;SDS011;25426;53.478;10.190;2022-08-21T09:29:53;4.05;;;1.55;;
39740;SDS011;25426;53.478;10.190;2022-08-21T09:32:26;5.05;;;2.13;;
39740;SDS011;25426;53.478;10.190;2022-08-21T09:45:42;9.75;;;3.08;;
39740;SDS011;25426;53.478;10.190;2022-08-21T09:48:18;7.22;;;2.80;;
39740;SDS011;25426;53.478;10.190;2022-08-21T09:51:04;4.63;;;2.08;;
39740;SDS011;25426;53.478;10.190;2022-08-21T09:53:49;6.78;;;1.55;;
39740;SDS011;25426;53.478;10.190;2022-08-21T09:56:39;7.28;;;2.28;;
39740;SDS011;25426;53.478;10.190;2022-08-21T09:59:45;5.57;;;2.20;;
39740;SDS011;25426;53.478;10.190;2022-08-21T10:02:30;6.95;;;2.28;;
39740;SDS011;25426;53.478;10.190;2022-08-21T10:05:07;5.50;;;1.73;;
39740;SDS011;25426;53.478;10.190;2022-08-21T10:07:55;6.45;;;2.30;;
39740;SDS011;25426;53.478;10.190;2022-08-21T10:10:28;4.95;;;2.28;;
39740;SDS011;25426;53.478;10.190;2022-08-21T10:13:15;5.75;;;1.80;;
39740;SDS011;25426;53.478;10.190;2022-08-21T10:16:07;4.88;;;1.80;;
39740;SDS011;25426;53.478;10.190;2022-08-21T10:19:47;7.63;;;2.00;;
39740;SDS011;25426;53.478;10.190;2022-08-21T10:22:50;4.90;;;1.95;;
39740;SDS011;25426;53.478;10.190;2022-08-21T10:25:52;8.25;;;2.42;;
39740;SDS011;25426;53.478;10.190;2022-08-21T10:29:05;7.30;;;2.60;;
39740;SDS011;25426;53.478;10.190;2022-08-21T10:32:27;6.05;;;2.35;;
39740;SDS011;25426;53.478;10.190;2022-08-21T10:35:23;4.50;;;2.67;;
39740;SDS011;25426;53.478;10.190;2022-08-21T10:38:35;5.13;;;2.35;;
39740;SDS011;25426;53.478;10.190;2022-08-21T10:41:37;5.20;;;1.90;;
39740;SDS011;25426;53.478;10.190;2022-08-21T10:44:42;5.57;;;1.90;;
39740;SDS011;25426;53.478;10.190;2022-08-21T10:48:02;6.82;;;1.98;;
39740;SDS011;25426;53.478;10.190;2022-08-21T10:50:44;5.40;;;1.63;;
39740;SDS011;25426;53.478;10.190;2022-08-21T10:53:36;4.47;;;1.70;;
39740;SDS011;25426;53.478;10.190;2022-08-21T11:01:54;5.53;;;1.70;;
39740;SDS011;25426;53.478;10.190;2022-08-21T11:13:19;3.97;;;1.85;;
39740;SDS011;25426;53.478;10.190;2022-08-21T11:16:21;5.03;;;1.77;;
39740;SDS011;25426;53.478;10.190;2022-08-21T11:19:20;3.83;;;1.52;;
39740;SDS011;25426;53.478;10.190;2022-08-21T11:22:14;4.75;;;1.65;;
39740;SDS011;25426;53.478;10.190;2022-08-21T11:24:56;4.50;;;1.95;;
39740;SDS011;25426;53.478;10.190;2022-08-21T11:27:52;6.45;;;1.92;;
39740;SDS011;25426;53.478;10.190;2022-08-21T11:42:35;3.70;;;1.70;;
39740;SDS011;25426;53.478;10.190;2022-08-21T11:45:54;3.58;;;1.50;;
39740;SDS011;25426;53.478;10.190;2022-08-21T11:48:48;5.13;;;1.65;;
39740;SDS011;25426;53.478;10.190;2022-08-21T11:51:54;4.57;;;1.77;;
39740;SDS011;25426;53.478;10.190;2022-08-21T11:57:44;3.70;;;1.60;;
39740;SDS011;25426;53.478;10.190;2022-08-21T12:00:24;2.88;;;1.35;;
39740;SDS011;25426;53.478;10.190;2022-08-21T12:07:08;3.00;;;1.13;;
39740;SDS011;25426;53.478;10.190;2022-08-21T12:09:59;3.30;;;1.70;;
39740;SDS011;25426;53.478;10.190;2022-08-21T12:12:44;4.80;;;1.55;;
39740;SDS011;25426;53.478;10.190;2022-08-21T12:18:24;5.22;;;1.50;;
39740;SDS011;25426;53.478;10.190;2022-08-21T12:27:00;4.22;;;1.48;;
39740;SDS011;25426;53.478;10.190;2022-08-21T12:29:58;3.10;;;1.52;;
39740;SDS011;25426;53.478;10.190;2022-08-21T12:35:16;3.90;;;1.60;;
39740;SDS011;25426;53.478;10.190;2022-08-21T12:41:01;3.85;;;1.42;;
39740;SDS011;25426;53.478;10.190;2022-08-21T12:44:05;4.22;;;1.58;;
39740;SDS011;25426;53.478;10.190;2022-08-21T12:47:04;2.05;;;1.38;;
39740;SDS011;25426;53.478;10.190;2022-08-21T12:49:52;4.88;;;1.35;;
39740;SDS011;25426;53.478;10.190;2022-08-21T12:52:55;4.03;;;1.52;;
39740;SDS011;25426;53.478;10.190;2022-08-21T12:55:37;3.45;;;1.30;;
39740;SDS011;25426;53.478;10.190;2022-08-21T12:58:22;3.00;;;1.00;;
39740;SDS011;25426;53.478;10.190;2022-08-21T13:00:56;2.10;;;1.30;;
39740;SDS011;25426;53.478;10.190;2022-08-21T13:03:38;3.03;;;1.20;;
39740;SDS011;25426;53.478;10.190;2022-08-21T13:06:13;4.03;;;1.38;;
39740;SDS011;25426;53.478;10.190;2022-08-21T13:08:46;3.83;;;1.30;;
39740;SDS011;25426;53.478;10.190;2022-08-21T13:11:20;2.95;;;1.60;;
39740;SDS011;25426;53.478;10.190;2022-08-21T13:13:52;4.13;;;1.60;;
39740;SDS011;25426;53.478;10.190;2022-08-21T13:16:25;2.53;;;1.33;;
39740;SDS011;25426;53.478;10.190;2022-08-21T13:19:00;4.70;;;1.65;;
39740;SDS011;25426;53.478;10.190;2022-08-21T13:21:39;4.55;;;1.58;;
39740;SDS011;25426;53.478;10.190;2022-08-21T13:24:22;5.18;;;1.42;;
39740;SDS011;25426;53.478;10.190;2022-08-21T13:27:04;3.90;;;1.38;;
39740;SDS011;25426;53.478;10.190;2022-08-21T13:30:02;4.35;;;1.50;;
39740;SDS011;25426;53.478;10.190;2022-08-21T13:32:45;3.03;;;1.42;;
39740;SDS011;25426;53.478;10.190;2022-08-21T13:35:34;5.70;;;1.33;;
39740;SDS011;25426;53.478;10.190;2022-08-21T13:38:19;2.60;;;1.40;;
39740;SDS011;25426;53.478;10.190;2022-08-21T13:40:59;3.60;;;1.40;;
39740;SDS011;25426;53.478;10.190;2022-08-21T13:43:57;2.50;;;1.33;;
39740;SDS011;25426;53.478;10.190;2022-08-21T13:46:33;2.42;;;1.38;;
39740;SDS011;25426;53.478;10.190;2022-08-21T13:49:06;2.92;;;1.23;;
39740;SDS011;25426;53.478;10.190;2022-08-21T13:51:37;2.25;;;1.30;;
39740;SDS011;25426;53.478;10.190;2022-08-21T13:54:41;3.67;;;1.40;;
39740;SDS011;25426;53.478;10.190;2022-08-21T13:57:18;3.22;;;1.13;;
39740;SDS011;25426;53.478;10.190;2022-08-21T14:00:16;1.75;;;1.17;;
39740;SDS011;25426;53.478;10.190;2022-08-21T14:02:49;2.55;;;1.10;;
39740;SDS011;25426;53.478;10.190;2022-08-21T14:05:27;2.85;;;1.13;;
39740;SDS011;25426;53.478;10.190;2022-08-21T14:08:04;2.47;;;1.13;;
39740;SDS011;25426;53.478;10.190;2022-08-21T14:10:43;3.00;;;1.50;;
39740;SDS011;25426;53.478;10.190;2022-08-21T14:13:24;2.58;;;1.20;;
39740;SDS011;25426;53.478;10.190;2022-08-21T14:16:23;3.00;;;1.40;;
39740;SDS011;25426;53.478;10.190;2022-08-21T14:21:32;2.95;;;1.30;;
39740;SDS011;25426;53.478;10.190;2022-08-21T14:27:06;3.50;;;1.25;;
39740;SDS011;25426;53.478;10.190;2022-08-21T14:29:38;3.70;;;1.08;;
39740;SDS011;25426;53.478;10.190;2022-08-21T14:32:14;3.25;;;1.50;;
39740;SDS011;25426;53.478;10.190;2022-08-21T14:34:52;3.25;;;1.45;;
39740;SDS011;25426;53.478;10.190;2022-08-21T14:37:23;2.38;;;1.23;;
39740;SDS011;25426;53.478;10.190;2022-08-21T14:39:55;1.70;;;1.20;;
39740;SDS011;25426;53.478;10.190;2022-08-21T14:42:26;3.17;;;1.50;;
39740;SDS011;25426;53.478;10.190;2022-08-21T14:44:58;2.95;;;1.20;;
39740;SDS011;25426;53.478;10.190;2022-08-21T14:47:43;2.53;;;1.40;;
39740;SDS011;25426;53.478;10.190;2022-08-21T14:50:14;3.40;;;1.38;;
39740;SDS011;25426;53.478;10.190;2022-08-21T14:52:45;10.02;;;1.73;;
39740;SDS011;25426;53.478;10.190;2022-08-21T14:55:16;2.25;;;1.20;;
39740;SDS011;25426;53.478;10.190;2022-08-21T14:57:48;4.55;;;1.58;;
39740;SDS011;25426;53.478;10.190;2022-08-21T15:00:22;4.82;;;1.83;;
39740;SDS011;25426;53.478;10.190;2022-08-21T15:02:55;3.83;;;1.35;;
39740;SDS011;25426;53.478;10.190;2022-08-21T15:05:25;3.35;;;1.30;;
39740;SDS011;25426;53.478;10.190;2022-08-21T15:07:56;5.00;;;1.50;;
39740;SDS011;25426;53.478;10.190;2022-08-21T15:10:27;3.17;;;1.30;;
39740;SDS011;25426;53.478;10.190;2022-08-21T15:13:00;3.50;;;1.58;;
39740;SDS011;25426;53.478;10.190;2022-08-21T15:15:38;4.45;;;1.60;;
39740;SDS011;25426;53.478;10.190;2022-08-21T15:18:15;3.05;;;1.50;;
39740;SDS011;25426;53.478;10.190;2022-08-21T15:20:46;4.32;;;2.42;;
39740;SDS011;25426;53.478;10.190;2022-08-21T15:23:17;5.03;;;2.00;;
39740;SDS011;25426;53.478;10.190;2022-08-21T15:25:48;5.07;;;2.63;;
39740;SDS011;25426;53.478;10.190;2022-08-21T15:28:20;3.25;;;1.40;;
39740;SDS011;25426;53.478;10.190;2022-08-21T15:30:52;3.65;;;1.27;;
39740;SDS011;25426;53.478;10.190;2022-08-21T15:33:23;7.55;;;2.13;;
39740;SDS011;25426;53.478;10.190;2022-08-21T15:35:54;3.78;;;2.00;;
39740;SDS011;25426;53.478;10.190;2022-08-21T15:38:25;3.17;;;2.10;;
39740;SDS011;25426;53.478;10.190;2022-08-21T15:40:56;4.00;;;2.15;;
39740;SDS011;25426;53.478;10.190;2022-08-21T15:43:28;6.38;;;2.95;;
39740;SDS011;25426;53.478;10.190;2022-08-21T15:46:01;4.65;;;2.00;;
39740;SDS011;25426;53.478;10.190;2022-08-21T15:48:32;4.28;;;2.38;;
39740;SDS011;25426;53.478;10.190;2022-08-21T15:51:03;3.72;;;1.52;;
39740;SDS011;25426;53.478;10.190;2022-08-21T15:53:34;2.08;;;1.17;;
39740;SDS011;25426;53.478;10.190;2022-08-21T15:56:17;3.67;;;1.20;;
39740;SDS011;25426;53.478;10.190;2022-08-21T15:59:03;4.15;;;1.30;;
39740;SDS011;25426;53.478;10.190;2022-08-21T16:01:43;2.78;;;1.30;;
39740;SDS011;25426;53.478;10.190;2022-08-21T16:04:18;4.90;;;1.75;;
39740;SDS011;25426;53.478;10.190;2022-08-21T16:06:55;3.75;;;1.80;;
39740;SDS011;25426;53.478;10.190;2022-08-21T16:09:26;2.53;;;1.25;;
39740;SDS011;25426;53.478;10.190;2022-08-21T16:11:58;4.90;;;1.40;;
39740;SDS011;25426;53.478;10.190;2022-08-21T16:14:30;5.10;;;1.65;;
39740;SDS011;25426;53.478;10.190;2022-08-21T16:17:02;5.18;;;1.35;;
39740;SDS011;25426;53.478;10.190;2022-08-21T16:19:36;3.50;;;1.23;;
39740;SDS011;25426;53.478;10.190;2022-08-21T16:22:07;3.92;;;1.65;;
39740;SDS011;25426;53.478;10.190;2022-08-21T16:24:38;3.17;;;1.33;;
39740;SDS011;25426;53.478;10.190;2022-08-21T16:27:09;3.63;;;1.35;;
39740;SDS011;25426;53.478;10.190;2022-08-21T16:29:40;5.72;;;1.65;;
39740;SDS011;25426;53.478;10.190;2022-08-21T16:32:11;3.58;;;1.40;;
39740;SDS011;25426;53.478;10.190;2022-08-21T16:34:44;3.05;;;1.17;;
39740;SDS011;25426;53.478;10.190;2022-08-21T16:37:18;5.18;;;1.73;;